sensor_id;sensor_type;location;lat;lon;timestamp;P1;durP1;ratioP1;P2;durP2;ratioP2
46439;SDS011;32138;50.966;6.968;2022-07-23T00:00:11;24.15;;;21.35;;
46439;SDS011;32138;50.966;6.968;2022-07-23T00:02:12;23.35;;;20.05;;
46439;SDS011;32138;50.966;6.968;2022-07-23T00:04:13;25.45;;;18.38;;
46439;SDS011;32138;50.966;6.968;2022-07-23T00:06:14;22.33;;;19.90;;
46439;SDS011;32138;50.966;6.968;2022-07-23T00:08:15;25.65;;;19.67;;
46439;SDS011;32138;50.966;6.968;2022-07-23T00:10:15;21.60;;;18.25;;
46439;SDS011;32138;50.966;6.968;2022-07-23T00:12:16;17.98;;;15.65;;
46439;SDS011;32138;50.966;6.968;2022-07-23T00:14:17;18.95;;;16.83;;
46439;SDS011;32138;50.966;6.968;2022-07-23T00:16:18;22.52;;;19.83;;
46439;SDS011;32138;50.966;6.968;2022-07-23T00:18:19;26.55;;;22.83;;
46439;SDS011;32138;50.966;6.968;2022-07-23T00:20:20;27.25;;;23.45;;
46439;SDS011;32138;50.966;6.968;2022-07-23T00:22:21;28.92;;;23.70;;
46439;SDS011;32138;50.966;6.968;2022-07-23T00:24:22;30.13;;;23.50;;
46439;SDS011;32138;50.966;6.968;2022-07-23T00:26:22;31.42;;;23.48;;
46439;SDS011;32138;50.966;6.968;2022-07-23T00:28:23;35.42;;;26.70;;
46439;SDS011;32138;50.966;6.968;2022-07-23T00:30:24;29.75;;;23.88;;
46439;SDS011;32138;50.966;6.968;2022-07-23T00:32:26;29.92;;;25.08;;
46439;SDS011;32138;50.966;6.968;2022-07-23T00:34:26;27.88;;;24.85;;
46439;SDS011;32138;50.966;6.968;2022-07-23T00:36:27;27.75;;;22.95;;
46439;SDS011;32138;50.966;6.968;2022-07-23T00:38:28;25.17;;;21.58;;
46439;SDS011;32138;50.966;6.968;2022-07-23T00:40:29;26.02;;;22.70;;
46439;SDS011;32138;50.966;6.968;2022-07-23T00:42:31;27.88;;;22.83;;
46439;SDS011;32138;50.966;6.968;2022-07-23T00:44:32;31.90;;;22.55;;
46439;SDS011;32138;50.966;6.968;2022-07-23T00:46:33;28.80;;;23.70;;
46439;SDS011;32138;50.966;6.968;2022-07-23T00:48:34;24.60;;;21.73;;
46439;SDS011;32138;50.966;6.968;2022-07-23T00:50:35;30.15;;;23.77;;
46439;SDS011;32138;50.966;6.968;2022-07-23T00:52:36;27.95;;;22.98;;
46439;SDS011;32138;50.966;6.968;2022-07-23T00:54:38;28.38;;;23.92;;
46439;SDS011;32138;50.966;6.968;2022-07-23T00:56:39;26.73;;;23.75;;
46439;SDS011;32138;50.966;6.968;2022-07-23T00:58:43;28.13;;;23.60;;
46439;SDS011;32138;50.966;6.968;2022-07-23T01:00:44;28.55;;;23.65;;
46439;SDS011;32138;50.966;6.968;2022-07-23T01:02:45;27.77;;;23.80;;
46439;SDS011;32138;50.966;6.968;2022-07-23T01:04:46;28.77;;;23.63;;
46439;SDS011;32138;50.966;6.968;2022-07-23T01:06:47;28.55;;;23.50;;
46439;SDS011;32138;50.966;6.968;2022-07-23T01:08:48;34.10;;;23.75;;
46439;SDS011;32138;50.966;6.968;2022-07-23T01:10:48;29.25;;;23.98;;
46439;SDS011;32138;50.966;6.968;2022-07-23T01:12:51;26.75;;;22.35;;
46439;SDS011;32138;50.966;6.968;2022-07-23T01:14:55;25.15;;;19.77;;
46439;SDS011;32138;50.966;6.968;2022-07-23T01:16:57;21.08;;;18.83;;
46439;SDS011;32138;50.966;6.968;2022-07-23T01:18:58;23.80;;;18.73;;
46439;SDS011;32138;50.966;6.968;2022-07-23T01:20:59;23.73;;;18.98;;
46439;SDS011;32138;50.966;6.968;2022-07-23T01:22:59;22.17;;;17.52;;
46439;SDS011;32138;50.966;6.968;2022-07-23T01:25:00;20.20;;;17.27;;
46439;SDS011;32138;50.966;6.968;2022-07-23T01:27:01;19.67;;;17.60;;
46439;SDS011;32138;50.966;6.968;2022-07-23T01:29:03;19.33;;;15.70;;
46439;SDS011;32138;50.966;6.968;2022-07-23T01:31:04;23.13;;;16.50;;
46439;SDS011;32138;50.966;6.968;2022-07-23T01:33:05;18.98;;;15.77;;
46439;SDS011;32138;50.966;6.968;2022-07-23T01:35:06;18.33;;;14.80;;
46439;SDS011;32138;50.966;6.968;2022-07-23T01:37:09;21.95;;;16.90;;
46439;SDS011;32138;50.966;6.968;2022-07-23T01:39:09;21.02;;;17.38;;
46439;SDS011;32138;50.966;6.968;2022-07-23T01:41:10;21.17;;;17.45;;
46439;SDS011;32138;50.966;6.968;2022-07-23T01:43:11;21.85;;;18.60;;
46439;SDS011;32138;50.966;6.968;2022-07-23T01:45:11;20.27;;;18.00;;
46439;SDS011;32138;50.966;6.968;2022-07-23T01:47:12;20.33;;;17.73;;
46439;SDS011;32138;50.966;6.968;2022-07-23T01:49:13;22.17;;;18.65;;
46439;SDS011;32138;50.966;6.968;2022-07-23T01:51:14;21.45;;;17.65;;
46439;SDS011;32138;50.966;6.968;2022-07-23T01:53:15;23.38;;;18.45;;
46439;SDS011;32138;50.966;6.968;2022-07-23T01:55:16;28.42;;;22.67;;
46439;SDS011;32138;50.966;6.968;2022-07-23T01:57:16;26.17;;;21.48;;
46439;SDS011;32138;50.966;6.968;2022-07-23T01:59:17;31.00;;;24.30;;
46439;SDS011;32138;50.966;6.968;2022-07-23T02:01:18;21.10;;;18.83;;
46439;SDS011;32138;50.966;6.968;2022-07-23T02:03:19;25.23;;;20.38;;
46439;SDS011;32138;50.966;6.968;2022-07-23T02:05:20;26.13;;;23.20;;
46439;SDS011;32138;50.966;6.968;2022-07-23T02:07:21;23.95;;;20.38;;
46439;SDS011;32138;50.966;6.968;2022-07-23T02:09:22;26.08;;;22.17;;
46439;SDS011;32138;50.966;6.968;2022-07-23T02:11:23;27.17;;;23.08;;
46439;SDS011;32138;50.966;6.968;2022-07-23T02:13:23;27.60;;;22.85;;
46439;SDS011;32138;50.966;6.968;2022-07-23T02:15:24;26.83;;;24.02;;
46439;SDS011;32138;50.966;6.968;2022-07-23T02:17:25;23.38;;;20.98;;
46439;SDS011;32138;50.966;6.968;2022-07-23T02:19:26;28.17;;;24.63;;
46439;SDS011;32138;50.966;6.968;2022-07-23T02:21:27;26.75;;;23.00;;
46439;SDS011;32138;50.966;6.968;2022-07-23T02:23:27;25.17;;;22.48;;
46439;SDS011;32138;50.966;6.968;2022-07-23T02:25:28;23.38;;;20.23;;
46439;SDS011;32138;50.966;6.968;2022-07-23T02:27:29;23.48;;;20.63;;
46439;SDS011;32138;50.966;6.968;2022-07-23T02:29:29;28.10;;;24.65;;
46439;SDS011;32138;50.966;6.968;2022-07-23T02:31:30;25.90;;;22.80;;
46439;SDS011;32138;50.966;6.968;2022-07-23T02:33:31;25.85;;;22.45;;
46439;SDS011;32138;50.966;6.968;2022-07-23T02:35:33;23.38;;;20.08;;
46439;SDS011;32138;50.966;6.968;2022-07-23T02:37:34;24.00;;;21.30;;
46439;SDS011;32138;50.966;6.968;2022-07-23T02:39:35;24.42;;;21.83;;
46439;SDS011;32138;50.966;6.968;2022-07-23T02:41:36;24.70;;;22.00;;
46439;SDS011;32138;50.966;6.968;2022-07-23T02:43:37;29.95;;;23.23;;
46439;SDS011;32138;50.966;6.968;2022-07-23T02:45:37;22.17;;;19.38;;
46439;SDS011;32138;50.966;6.968;2022-07-23T02:47:38;23.25;;;20.27;;
46439;SDS011;32138;50.966;6.968;2022-07-23T02:49:39;21.20;;;18.90;;
46439;SDS011;32138;50.966;6.968;2022-07-23T02:51:39;20.80;;;18.27;;
46439;SDS011;32138;50.966;6.968;2022-07-23T02:53:40;24.40;;;20.70;;
46439;SDS011;32138;50.966;6.968;2022-07-23T02:55:41;23.85;;;19.45;;
46439;SDS011;32138;50.966;6.968;2022-07-23T02:57:42;23.10;;;20.45;;
46439;SDS011;32138;50.966;6.968;2022-07-23T02:59:43;25.30;;;21.67;;
46439;SDS011;32138;50.966;6.968;2022-07-23T03:01:44;28.05;;;22.77;;
46439;SDS011;32138;50.966;6.968;2022-07-23T03:03:45;25.67;;;20.35;;
46439;SDS011;32138;50.966;6.968;2022-07-23T03:05:46;27.33;;;23.95;;
46439;SDS011;32138;50.966;6.968;2022-07-23T03:07:48;27.60;;;23.40;;
46439;SDS011;32138;50.966;6.968;2022-07-23T03:09:49;24.02;;;21.45;;
46439;SDS011;32138;50.966;6.968;2022-07-23T03:11:49;27.90;;;23.85;;
46439;SDS011;32138;50.966;6.968;2022-07-23T03:13:50;28.33;;;25.27;;
46439;SDS011;32138;50.966;6.968;2022-07-23T03:15:51;33.95;;;27.52;;
46439;SDS011;32138;50.966;6.968;2022-07-23T03:17:51;34.00;;;25.70;;
46439;SDS011;32138;50.966;6.968;2022-07-23T03:19:52;28.45;;;24.08;;
46439;SDS011;32138;50.966;6.968;2022-07-23T03:21:53;31.02;;;26.02;;
46439;SDS011;32138;50.966;6.968;2022-07-23T03:23:54;29.42;;;25.17;;
46439;SDS011;32138;50.966;6.968;2022-07-23T03:25:54;33.85;;;27.33;;
46439;SDS011;32138;50.966;6.968;2022-07-23T03:27:55;30.92;;;25.98;;
46439;SDS011;32138;50.966;6.968;2022-07-23T03:29:57;35.97;;;29.27;;
46439;SDS011;32138;50.966;6.968;2022-07-23T03:31:59;28.58;;;25.40;;
46439;SDS011;32138;50.966;6.968;2022-07-23T03:34:00;30.42;;;25.65;;
46439;SDS011;32138;50.966;6.968;2022-07-23T03:36:01;31.85;;;26.77;;
46439;SDS011;32138;50.966;6.968;2022-07-23T03:38:02;34.53;;;27.00;;
46439;SDS011;32138;50.966;6.968;2022-07-23T03:40:03;30.52;;;27.27;;
46439;SDS011;32138;50.966;6.968;2022-07-23T03:42:05;34.83;;;28.38;;
46439;SDS011;32138;50.966;6.968;2022-07-23T03:44:06;31.73;;;27.30;;
46439;SDS011;32138;50.966;6.968;2022-07-23T03:46:06;31.25;;;26.77;;
46439;SDS011;32138;50.966;6.968;2022-07-23T03:48:07;35.95;;;28.92;;
46439;SDS011;32138;50.966;6.968;2022-07-23T03:50:08;32.00;;;27.30;;
46439;SDS011;32138;50.966;6.968;2022-07-23T03:52:09;38.63;;;28.88;;
46439;SDS011;32138;50.966;6.968;2022-07-23T03:54:10;31.55;;;27.02;;
46439;SDS011;32138;50.966;6.968;2022-07-23T03:56:11;30.95;;;25.67;;
46439;SDS011;32138;50.966;6.968;2022-07-23T03:58:11;33.35;;;27.25;;
46439;SDS011;32138;50.966;6.968;2022-07-23T04:00:12;38.30;;;31.50;;
46439;SDS011;32138;50.966;6.968;2022-07-23T04:02:14;34.63;;;26.77;;
46439;SDS011;32138;50.966;6.968;2022-07-23T04:04:14;32.00;;;27.48;;
46439;SDS011;32138;50.966;6.968;2022-07-23T04:06:15;33.72;;;28.33;;
46439;SDS011;32138;50.966;6.968;2022-07-23T04:08:16;33.85;;;29.20;;
46439;SDS011;32138;50.966;6.968;2022-07-23T04:10:17;32.65;;;28.55;;
46439;SDS011;32138;50.966;6.968;2022-07-23T04:12:17;34.05;;;29.83;;
46439;SDS011;32138;50.966;6.968;2022-07-23T04:14:18;31.45;;;26.70;;
46439;SDS011;32138;50.966;6.968;2022-07-23T04:16:19;32.33;;;27.30;;
46439;SDS011;32138;50.966;6.968;2022-07-23T04:18:20;32.63;;;27.63;;
46439;SDS011;32138;50.966;6.968;2022-07-23T04:20:23;31.52;;;28.17;;
46439;SDS011;32138;50.966;6.968;2022-07-23T04:22:24;34.30;;;27.20;;
46439;SDS011;32138;50.966;6.968;2022-07-23T04:24:25;34.50;;;27.20;;
46439;SDS011;32138;50.966;6.968;2022-07-23T04:26:25;33.97;;;27.17;;
46439;SDS011;32138;50.966;6.968;2022-07-23T04:28:26;33.88;;;30.25;;
46439;SDS011;32138;50.966;6.968;2022-07-23T04:30:27;33.40;;;27.65;;
46439;SDS011;32138;50.966;6.968;2022-07-23T04:32:28;32.25;;;27.70;;
46439;SDS011;32138;50.966;6.968;2022-07-23T04:34:29;36.42;;;28.98;;
46439;SDS011;32138;50.966;6.968;2022-07-23T04:36:30;32.80;;;26.55;;
46439;SDS011;32138;50.966;6.968;2022-07-23T04:38:30;31.80;;;26.27;;
46439;SDS011;32138;50.966;6.968;2022-07-23T04:40:32;33.42;;;26.95;;
46439;SDS011;32138;50.966;6.968;2022-07-23T04:42:33;32.60;;;26.90;;
46439;SDS011;32138;50.966;6.968;2022-07-23T04:44:33;26.88;;;23.98;;
46439;SDS011;32138;50.966;6.968;2022-07-23T04:46:34;33.88;;;27.95;;
46439;SDS011;32138;50.966;6.968;2022-07-23T04:48:35;32.50;;;27.73;;
46439;SDS011;32138;50.966;6.968;2022-07-23T04:50:36;30.48;;;26.05;;
46439;SDS011;32138;50.966;6.968;2022-07-23T04:52:36;31.30;;;27.45;;
46439;SDS011;32138;50.966;6.968;2022-07-23T04:54:37;33.67;;;27.40;;
46439;SDS011;32138;50.966;6.968;2022-07-23T04:56:38;34.20;;;28.17;;
46439;SDS011;32138;50.966;6.968;2022-07-23T04:58:39;30.38;;;26.63;;
46439;SDS011;32138;50.966;6.968;2022-07-23T05:00:39;36.40;;;29.08;;
46439;SDS011;32138;50.966;6.968;2022-07-23T05:02:40;31.75;;;28.00;;
46439;SDS011;32138;50.966;6.968;2022-07-23T05:04:41;32.75;;;25.98;;
46439;SDS011;32138;50.966;6.968;2022-07-23T05:06:42;39.50;;;30.08;;
46439;SDS011;32138;50.966;6.968;2022-07-23T05:08:42;32.90;;;26.88;;
46439;SDS011;32138;50.966;6.968;2022-07-23T05:10:43;35.70;;;29.50;;
46439;SDS011;32138;50.966;6.968;2022-07-23T05:12:44;38.95;;;31.13;;
46439;SDS011;32138;50.966;6.968;2022-07-23T05:14:45;32.55;;;27.70;;
46439;SDS011;32138;50.966;6.968;2022-07-23T05:16:45;37.50;;;31.98;;
46439;SDS011;32138;50.966;6.968;2022-07-23T05:18:46;38.05;;;30.50;;
46439;SDS011;32138;50.966;6.968;2022-07-23T05:20:47;36.90;;;29.70;;
46439;SDS011;32138;50.966;6.968;2022-07-23T05:22:50;39.13;;;30.80;;
46439;SDS011;32138;50.966;6.968;2022-07-23T05:24:54;38.70;;;29.73;;
46439;SDS011;32138;50.966;6.968;2022-07-23T05:26:55;36.45;;;28.25;;
46439;SDS011;32138;50.966;6.968;2022-07-23T05:28:55;34.30;;;26.95;;
46439;SDS011;32138;50.966;6.968;2022-07-23T05:30:56;30.85;;;26.23;;
46439;SDS011;32138;50.966;6.968;2022-07-23T05:32:57;36.92;;;27.58;;
46439;SDS011;32138;50.966;6.968;2022-07-23T05:34:58;40.85;;;31.73;;
46439;SDS011;32138;50.966;6.968;2022-07-23T05:36:59;31.00;;;27.38;;
46439;SDS011;32138;50.966;6.968;2022-07-23T05:39:00;36.75;;;28.50;;
46439;SDS011;32138;50.966;6.968;2022-07-23T05:41:01;40.85;;;32.28;;
46439;SDS011;32138;50.966;6.968;2022-07-23T05:43:02;35.53;;;30.08;;
46439;SDS011;32138;50.966;6.968;2022-07-23T05:45:03;33.03;;;26.90;;
46439;SDS011;32138;50.966;6.968;2022-07-23T05:47:05;36.75;;;29.60;;
46439;SDS011;32138;50.966;6.968;2022-07-23T05:49:05;33.92;;;28.00;;
46439;SDS011;32138;50.966;6.968;2022-07-23T05:51:06;35.30;;;28.58;;
46439;SDS011;32138;50.966;6.968;2022-07-23T05:53:07;37.85;;;29.20;;
46439;SDS011;32138;50.966;6.968;2022-07-23T05:55:09;35.88;;;28.65;;
46439;SDS011;32138;50.966;6.968;2022-07-23T05:57:12;32.28;;;25.58;;
46439;SDS011;32138;50.966;6.968;2022-07-23T05:59:13;34.80;;;28.13;;
46439;SDS011;32138;50.966;6.968;2022-07-23T06:01:14;36.33;;;26.83;;
46439;SDS011;32138;50.966;6.968;2022-07-23T06:03:15;36.63;;;26.33;;
46439;SDS011;32138;50.966;6.968;2022-07-23T06:05:16;35.47;;;26.52;;
46439;SDS011;32138;50.966;6.968;2022-07-23T06:07:17;35.15;;;25.85;;
46439;SDS011;32138;50.966;6.968;2022-07-23T06:09:18;34.75;;;26.38;;
46439;SDS011;32138;50.966;6.968;2022-07-23T06:11:18;31.65;;;26.98;;
46439;SDS011;32138;50.966;6.968;2022-07-23T06:13:19;37.33;;;28.85;;
46439;SDS011;32138;50.966;6.968;2022-07-23T06:15:20;37.38;;;28.77;;
46439;SDS011;32138;50.966;6.968;2022-07-23T06:17:24;36.90;;;27.88;;
46439;SDS011;32138;50.966;6.968;2022-07-23T06:19:25;37.35;;;26.98;;
46439;SDS011;32138;50.966;6.968;2022-07-23T06:21:26;32.22;;;26.98;;
46439;SDS011;32138;50.966;6.968;2022-07-23T06:23:27;34.08;;;26.25;;
46439;SDS011;32138;50.966;6.968;2022-07-23T06:25:28;36.50;;;26.17;;
46439;SDS011;32138;50.966;6.968;2022-07-23T06:27:29;31.40;;;27.00;;
46439;SDS011;32138;50.966;6.968;2022-07-23T06:29:30;31.48;;;24.17;;
46439;SDS011;32138;50.966;6.968;2022-07-23T06:31:31;33.92;;;27.05;;
46439;SDS011;32138;50.966;6.968;2022-07-23T06:33:31;34.92;;;27.02;;
46439;SDS011;32138;50.966;6.968;2022-07-23T06:35:33;35.30;;;25.90;;
46439;SDS011;32138;50.966;6.968;2022-07-23T06:37:34;30.80;;;22.52;;
46439;SDS011;32138;50.966;6.968;2022-07-23T06:39:35;28.25;;;23.17;;
46439;SDS011;32138;50.966;6.968;2022-07-23T06:41:36;29.75;;;23.75;;
46439;SDS011;32138;50.966;6.968;2022-07-23T06:43:36;30.50;;;23.13;;
46439;SDS011;32138;50.966;6.968;2022-07-23T06:45:37;30.05;;;24.13;;
46439;SDS011;32138;50.966;6.968;2022-07-23T06:47:38;31.67;;;23.33;;
46439;SDS011;32138;50.966;6.968;2022-07-23T06:49:40;26.30;;;22.30;;
46439;SDS011;32138;50.966;6.968;2022-07-23T06:51:41;25.75;;;21.20;;
46439;SDS011;32138;50.966;6.968;2022-07-23T06:53:41;26.98;;;22.35;;
46439;SDS011;32138;50.966;6.968;2022-07-23T06:55:42;25.85;;;22.02;;
46439;SDS011;32138;50.966;6.968;2022-07-23T06:57:43;24.45;;;20.95;;
46439;SDS011;32138;50.966;6.968;2022-07-23T06:59:44;25.60;;;21.92;;
46439;SDS011;32138;50.966;6.968;2022-07-23T07:01:44;26.85;;;21.95;;
46439;SDS011;32138;50.966;6.968;2022-07-23T07:03:45;25.35;;;19.63;;
46439;SDS011;32138;50.966;6.968;2022-07-23T07:05:46;21.70;;;18.67;;
46439;SDS011;32138;50.966;6.968;2022-07-23T07:07:47;24.45;;;20.27;;
46439;SDS011;32138;50.966;6.968;2022-07-23T07:09:48;24.60;;;19.88;;
46439;SDS011;32138;50.966;6.968;2022-07-23T07:11:48;22.33;;;18.85;;
46439;SDS011;32138;50.966;6.968;2022-07-23T07:13:49;26.63;;;20.63;;
46439;SDS011;32138;50.966;6.968;2022-07-23T07:15:50;55.35;;;43.92;;
46439;SDS011;32138;50.966;6.968;2022-07-23T07:17:51;54.75;;;46.60;;
46439;SDS011;32138;50.966;6.968;2022-07-23T07:19:51;29.90;;;25.10;;
46439;SDS011;32138;50.966;6.968;2022-07-23T07:21:52;24.17;;;20.67;;
46439;SDS011;32138;50.966;6.968;2022-07-23T07:23:53;28.10;;;20.50;;
46439;SDS011;32138;50.966;6.968;2022-07-23T07:25:54;25.00;;;19.95;;
46439;SDS011;32138;50.966;6.968;2022-07-23T07:27:54;20.10;;;16.75;;
46439;SDS011;32138;50.966;6.968;2022-07-23T07:29:55;22.85;;;19.10;;
46439;SDS011;32138;50.966;6.968;2022-07-23T07:31:56;24.38;;;19.98;;
46439;SDS011;32138;50.966;6.968;2022-07-23T07:33:57;26.00;;;20.45;;
46439;SDS011;32138;50.966;6.968;2022-07-23T07:35:58;23.25;;;18.38;;
46439;SDS011;32138;50.966;6.968;2022-07-23T07:38:00;23.92;;;17.45;;
46439;SDS011;32138;50.966;6.968;2022-07-23T07:40:01;22.38;;;18.80;;
46439;SDS011;32138;50.966;6.968;2022-07-23T07:42:03;26.83;;;20.42;;
46439;SDS011;32138;50.966;6.968;2022-07-23T07:44:04;23.85;;;19.77;;
46439;SDS011;32138;50.966;6.968;2022-07-23T07:46:05;21.15;;;18.08;;
46439;SDS011;32138;50.966;6.968;2022-07-23T07:48:09;23.85;;;19.10;;
46439;SDS011;32138;50.966;6.968;2022-07-23T07:50:10;23.00;;;19.13;;
46439;SDS011;32138;50.966;6.968;2022-07-23T07:52:11;23.13;;;18.95;;
46439;SDS011;32138;50.966;6.968;2022-07-23T07:54:12;23.50;;;21.00;;
46439;SDS011;32138;50.966;6.968;2022-07-23T07:56:13;26.55;;;20.63;;
46439;SDS011;32138;50.966;6.968;2022-07-23T07:58:14;25.23;;;21.23;;
46439;SDS011;32138;50.966;6.968;2022-07-23T08:00:15;22.75;;;19.20;;
46439;SDS011;32138;50.966;6.968;2022-07-23T08:02:16;22.25;;;19.92;;
46439;SDS011;32138;50.966;6.968;2022-07-23T08:04:17;22.27;;;19.15;;
46439;SDS011;32138;50.966;6.968;2022-07-23T08:06:18;24.10;;;19.80;;
46439;SDS011;32138;50.966;6.968;2022-07-23T08:08:19;22.13;;;19.83;;
46439;SDS011;32138;50.966;6.968;2022-07-23T08:10:20;22.48;;;20.10;;
46439;SDS011;32138;50.966;6.968;2022-07-23T08:12:21;22.00;;;19.73;;
46439;SDS011;32138;50.966;6.968;2022-07-23T08:14:21;22.02;;;19.65;;
46439;SDS011;32138;50.966;6.968;2022-07-23T08:16:22;23.38;;;19.52;;
46439;SDS011;32138;50.966;6.968;2022-07-23T08:18:23;21.13;;;17.98;;
46439;SDS011;32138;50.966;6.968;2022-07-23T08:20:25;21.98;;;19.58;;
46439;SDS011;32138;50.966;6.968;2022-07-23T08:22:40;21.88;;;18.50;;
46439;SDS011;32138;50.966;6.968;2022-07-23T08:24:54;19.52;;;17.50;;
46439;SDS011;32138;50.966;6.968;2022-07-23T08:26:56;24.77;;;21.92;;
46439;SDS011;32138;50.966;6.968;2022-07-23T08:28:56;19.88;;;17.88;;
46439;SDS011;32138;50.966;6.968;2022-07-23T08:30:57;20.55;;;18.27;;
46439;SDS011;32138;50.966;6.968;2022-07-23T08:32:59;21.33;;;19.10;;
46439;SDS011;32138;50.966;6.968;2022-07-23T08:35:13;18.88;;;16.88;;
46439;SDS011;32138;50.966;6.968;2022-07-23T08:37:13;18.95;;;16.42;;
46439;SDS011;32138;50.966;6.968;2022-07-23T08:39:14;19.52;;;15.73;;
46439;SDS011;32138;50.966;6.968;2022-07-23T08:41:15;22.40;;;18.40;;
46439;SDS011;32138;50.966;6.968;2022-07-23T08:43:18;18.65;;;16.73;;
46439;SDS011;32138;50.966;6.968;2022-07-23T08:45:25;20.88;;;17.95;;
46439;SDS011;32138;50.966;6.968;2022-07-23T08:47:27;16.50;;;13.75;;
46439;SDS011;32138;50.966;6.968;2022-07-23T08:49:29;17.15;;;14.57;;
46439;SDS011;32138;50.966;6.968;2022-07-23T08:51:30;15.25;;;13.75;;
46439;SDS011;32138;50.966;6.968;2022-07-23T08:53:32;17.85;;;15.65;;
46439;SDS011;32138;50.966;6.968;2022-07-23T08:55:35;16.60;;;14.20;;
46439;SDS011;32138;50.966;6.968;2022-07-23T08:57:36;19.20;;;17.15;;
46439;SDS011;32138;50.966;6.968;2022-07-23T08:59:37;16.35;;;14.68;;
46439;SDS011;32138;50.966;6.968;2022-07-23T09:01:38;14.70;;;13.30;;
46439;SDS011;32138;50.966;6.968;2022-07-23T09:03:39;15.73;;;14.13;;
46439;SDS011;32138;50.966;6.968;2022-07-23T09:05:40;15.57;;;14.07;;
46439;SDS011;32138;50.966;6.968;2022-07-23T09:10:16;17.42;;;15.05;;
46439;SDS011;32138;50.966;6.968;2022-07-23T09:12:17;17.23;;;15.32;;
46439;SDS011;32138;50.966;6.968;2022-07-23T09:14:18;16.23;;;14.52;;
46439;SDS011;32138;50.966;6.968;2022-07-23T09:16:46;17.48;;;15.63;;
46439;SDS011;32138;50.966;6.968;2022-07-23T09:20:49;16.50;;;13.35;;
46439;SDS011;32138;50.966;6.968;2022-07-23T09:22:54;17.73;;;14.93;;
46439;SDS011;32138;50.966;6.968;2022-07-23T09:25:05;18.75;;;14.73;;
46439;SDS011;32138;50.966;6.968;2022-07-23T09:27:07;14.77;;;13.27;;
46439;SDS011;32138;50.966;6.968;2022-07-23T09:31:30;18.45;;;16.65;;
46439;SDS011;32138;50.966;6.968;2022-07-23T09:33:35;19.35;;;17.38;;
46439;SDS011;32138;50.966;6.968;2022-07-23T09:35:45;17.88;;;15.98;;
46439;SDS011;32138;50.966;6.968;2022-07-23T09:38:00;21.33;;;18.67;;
46439;SDS011;32138;50.966;6.968;2022-07-23T09:40:06;21.00;;;17.85;;
46439;SDS011;32138;50.966;6.968;2022-07-23T09:44:19;20.13;;;16.63;;
46439;SDS011;32138;50.966;6.968;2022-07-23T09:46:23;21.55;;;18.23;;
46439;SDS011;32138;50.966;6.968;2022-07-23T09:48:27;22.30;;;18.63;;
46439;SDS011;32138;50.966;6.968;2022-07-23T09:50:28;19.48;;;17.02;;
46439;SDS011;32138;50.966;6.968;2022-07-23T09:52:30;20.27;;;16.75;;
46439;SDS011;32138;50.966;6.968;2022-07-23T09:54:37;17.35;;;15.70;;
46439;SDS011;32138;50.966;6.968;2022-07-23T09:56:39;20.95;;;15.90;;
46439;SDS011;32138;50.966;6.968;2022-07-23T09:58:42;16.05;;;14.18;;
46439;SDS011;32138;50.966;6.968;2022-07-23T10:01:07;18.52;;;14.18;;
46439;SDS011;32138;50.966;6.968;2022-07-23T10:03:09;15.27;;;13.82;;
46439;SDS011;32138;50.966;6.968;2022-07-23T10:05:11;17.27;;;15.30;;
46439;SDS011;32138;50.966;6.968;2022-07-23T10:07:12;16.30;;;14.75;;
46439;SDS011;32138;50.966;6.968;2022-07-23T10:09:17;16.92;;;14.43;;
46439;SDS011;32138;50.966;6.968;2022-07-23T10:11:34;16.88;;;13.90;;
46439;SDS011;32138;50.966;6.968;2022-07-23T10:13:36;15.07;;;12.50;;
46439;SDS011;32138;50.966;6.968;2022-07-23T10:15:46;14.45;;;12.52;;
46439;SDS011;32138;50.966;6.968;2022-07-23T10:17:48;17.23;;;13.50;;
46439;SDS011;32138;50.966;6.968;2022-07-23T10:19:49;15.98;;;12.32;;
46439;SDS011;32138;50.966;6.968;2022-07-23T10:21:55;17.13;;;13.35;;
46439;SDS011;32138;50.966;6.968;2022-07-23T10:27:17;14.15;;;11.90;;
46439;SDS011;32138;50.966;6.968;2022-07-23T10:36:55;13.05;;;11.65;;
46439;SDS011;32138;50.966;6.968;2022-07-23T10:41:32;11.77;;;9.98;;
46439;SDS011;32138;50.966;6.968;2022-07-23T10:43:36;13.23;;;10.25;;
46439;SDS011;32138;50.966;6.968;2022-07-23T10:45:36;11.60;;;9.50;;
46439;SDS011;32138;50.966;6.968;2022-07-23T10:47:37;12.93;;;9.95;;
46439;SDS011;32138;50.966;6.968;2022-07-23T10:49:41;11.82;;;9.70;;
46439;SDS011;32138;50.966;6.968;2022-07-23T10:52:14;12.70;;;9.40;;
46439;SDS011;32138;50.966;6.968;2022-07-23T10:54:21;11.50;;;8.70;;
46439;SDS011;32138;50.966;6.968;2022-07-23T10:58:57;11.65;;;8.68;;
46439;SDS011;32138;50.966;6.968;2022-07-23T11:01:29;11.98;;;8.88;;
46439;SDS011;32138;50.966;6.968;2022-07-23T11:03:33;10.70;;;9.52;;
46439;SDS011;32138;50.966;6.968;2022-07-23T11:05:42;15.18;;;10.65;;
46439;SDS011;32138;50.966;6.968;2022-07-23T11:10:04;9.93;;;7.72;;
46439;SDS011;32138;50.966;6.968;2022-07-23T11:17:02;10.07;;;9.07;;
46439;SDS011;32138;50.966;6.968;2022-07-23T11:19:19;11.27;;;9.50;;
46439;SDS011;32138;50.966;6.968;2022-07-23T11:23:21;12.68;;;9.00;;
46439;SDS011;32138;50.966;6.968;2022-07-23T11:27:36;8.00;;;6.82;;
46439;SDS011;32138;50.966;6.968;2022-07-23T11:29:55;8.05;;;7.22;;
46439;SDS011;32138;50.966;6.968;2022-07-23T11:36:48;10.50;;;7.00;;
46439;SDS011;32138;50.966;6.968;2022-07-23T11:38:50;28.73;;;9.20;;
46439;SDS011;32138;50.966;6.968;2022-07-23T11:40:53;13.48;;;8.45;;
46439;SDS011;32138;50.966;6.968;2022-07-23T11:42:59;15.20;;;9.48;;
46439;SDS011;32138;50.966;6.968;2022-07-23T11:45:07;9.73;;;7.53;;
46439;SDS011;32138;50.966;6.968;2022-07-23T11:47:09;11.57;;;9.10;;
46439;SDS011;32138;50.966;6.968;2022-07-23T11:49:12;10.55;;;9.45;;
46439;SDS011;32138;50.966;6.968;2022-07-23T11:51:21;10.90;;;9.80;;
46439;SDS011;32138;50.966;6.968;2022-07-23T11:53:30;11.77;;;9.25;;
46439;SDS011;32138;50.966;6.968;2022-07-23T11:55:33;11.40;;;9.75;;
46439;SDS011;32138;50.966;6.968;2022-07-23T11:57:40;12.52;;;10.32;;
46439;SDS011;32138;50.966;6.968;2022-07-23T11:59:41;13.10;;;10.68;;
46439;SDS011;32138;50.966;6.968;2022-07-23T12:04:42;12.13;;;10.90;;
46439;SDS011;32138;50.966;6.968;2022-07-23T12:06:49;10.25;;;9.25;;
46439;SDS011;32138;50.966;6.968;2022-07-23T12:08:50;11.43;;;9.43;;
46439;SDS011;32138;50.966;6.968;2022-07-23T12:10:50;11.35;;;9.38;;
46439;SDS011;32138;50.966;6.968;2022-07-23T12:12:55;12.75;;;8.95;;
46439;SDS011;32138;50.966;6.968;2022-07-23T12:15:01;12.32;;;8.70;;
46439;SDS011;32138;50.966;6.968;2022-07-23T12:17:09;12.20;;;10.05;;
46439;SDS011;32138;50.966;6.968;2022-07-23T12:19:10;10.30;;;9.30;;
46439;SDS011;32138;50.966;6.968;2022-07-23T12:21:11;10.25;;;8.32;;
46439;SDS011;32138;50.966;6.968;2022-07-23T12:23:13;9.52;;;7.70;;
46439;SDS011;32138;50.966;6.968;2022-07-23T12:25:17;10.93;;;7.63;;
46439;SDS011;32138;50.966;6.968;2022-07-23T12:27:24;10.07;;;7.30;;
46439;SDS011;32138;50.966;6.968;2022-07-23T12:29:33;8.38;;;7.53;;
46439;SDS011;32138;50.966;6.968;2022-07-23T12:31:38;10.52;;;8.32;;
46439;SDS011;32138;50.966;6.968;2022-07-23T12:33:39;10.50;;;7.43;;
46439;SDS011;32138;50.966;6.968;2022-07-23T12:35:41;9.57;;;7.20;;
46439;SDS011;32138;50.966;6.968;2022-07-23T12:37:46;9.32;;;7.20;;
46439;SDS011;32138;50.966;6.968;2022-07-23T12:39:48;8.40;;;6.93;;